Weather at Enniskillen/St Angelo Airport

Public forecast

Using degrees Celsius for public forecast. Weather courtesy of forecast.io.

Closest aviation weather report (METAR) to Enniskillen/St Angelo Airport

Report is more than 2 hours old.

Closest report is Sligo Airport, 33.9 nm (62.8 km) WSW. Retrieved 2021/12/03 20:30 UTC (5 hours ago):

EISG 032030Z 25015KT 7000 FEW016 BKN024 OVC038 08/06 Q0996

Closest aviation forecast (TAF) to Enniskillen/St Angelo Airport

Closest forecast is Ireland West Knock Airport, 50.4 nm (93.4 km) SW. Retrieved 2021-12-04 00:30 UTC (1 hour ago):

TAF COR EIKN 032326Z 0400/0424 27013KT 9999 FEW015 BKN040 TEMPO 0400/0411 28016G28KT TEMPO 0400/0419 -SHRA SCT010 SCT018CB PROB40 TEMPO 0408/0419 4000 SHRAGS BECMG 0411/0413 30015G25KT TEMPO 0412/0415 31020G35KT BECMG 0417/0419 29010KT